sensor_id;sensor_type;location;lat;lon;timestamp;P1;durP1;ratioP1;P2;durP2;ratioP2
54557;SDS011;40452;50.080;20.040;2022-12-29T00:01:35;10.30;;;4.88;;
54557;SDS011;40452;50.080;20.040;2022-12-29T00:04:01;8.45;;;4.78;;
54557;SDS011;40452;50.080;20.040;2022-12-29T00:06:27;8.07;;;5.10;;
54557;SDS011;40452;50.080;20.040;2022-12-29T00:08:53;10.15;;;5.22;;
54557;SDS011;40452;50.080;20.040;2022-12-29T00:11:22;8.50;;;5.13;;
54557;SDS011;40452;50.080;20.040;2022-12-29T00:16:34;10.27;;;4.82;;
54557;SDS011;40452;50.080;20.040;2022-12-29T00:19:00;9.18;;;4.63;;
54557;SDS011;40452;50.080;20.040;2022-12-29T00:21:27;9.30;;;4.90;;
54557;SDS011;40452;50.080;20.040;2022-12-29T00:24:13;8.85;;;4.68;;
54557;SDS011;40452;50.080;20.040;2022-12-29T00:29:46;9.82;;;4.50;;
54557;SDS011;40452;50.080;20.040;2022-12-29T00:32:31;9.70;;;4.78;;
54557;SDS011;40452;50.080;20.040;2022-12-29T00:35:21;8.05;;;4.65;;
54557;SDS011;40452;50.080;20.040;2022-12-29T00:37:51;8.93;;;4.85;;
54557;SDS011;40452;50.080;20.040;2022-12-29T00:40:37;8.35;;;4.72;;
54557;SDS011;40452;50.080;20.040;2022-12-29T00:43:21;8.60;;;4.75;;
54557;SDS011;40452;50.080;20.040;2022-12-29T00:46:05;8.55;;;4.70;;
54557;SDS011;40452;50.080;20.040;2022-12-29T00:48:30;9.20;;;4.40;;
54557;SDS011;40452;50.080;20.040;2022-12-29T00:51:14;8.35;;;4.80;;
54557;SDS011;40452;50.080;20.040;2022-12-29T00:53:40;7.25;;;4.45;;
54557;SDS011;40452;50.080;20.040;2022-12-29T00:56:05;6.88;;;4.15;;
54557;SDS011;40452;50.080;20.040;2022-12-29T00:58:31;7.10;;;3.92;;
54557;SDS011;40452;50.080;20.040;2022-12-29T01:01:03;8.07;;;4.30;;
54557;SDS011;40452;50.080;20.040;2022-12-29T01:03:29;8.07;;;4.47;;
54557;SDS011;40452;50.080;20.040;2022-12-29T01:05:55;7.80;;;4.05;;
54557;SDS011;40452;50.080;20.040;2022-12-29T01:08:21;7.18;;;4.07;;
54557;SDS011;40452;50.080;20.040;2022-12-29T01:10:57;8.90;;;4.50;;
54557;SDS011;40452;50.080;20.040;2022-12-29T01:13:27;7.07;;;4.47;;
54557;SDS011;40452;50.080;20.040;2022-12-29T01:15:53;7.90;;;4.38;;
54557;SDS011;40452;50.080;20.040;2022-12-29T01:18:19;7.25;;;4.18;;
54557;SDS011;40452;50.080;20.040;2022-12-29T01:20:45;8.48;;;4.45;;
54557;SDS011;40452;50.080;20.040;2022-12-29T01:23:10;8.00;;;4.10;;
54557;SDS011;40452;50.080;20.040;2022-12-29T01:25:36;7.93;;;4.18;;
54557;SDS011;40452;50.080;20.040;2022-12-29T01:28:01;6.30;;;4.10;;
54557;SDS011;40452;50.080;20.040;2022-12-29T01:30:27;6.65;;;3.97;;
54557;SDS011;40452;50.080;20.040;2022-12-29T01:32:53;6.47;;;4.22;;
54557;SDS011;40452;50.080;20.040;2022-12-29T01:35:18;9.07;;;4.18;;
54557;SDS011;40452;50.080;20.040;2022-12-29T01:37:44;8.70;;;4.55;;
54557;SDS011;40452;50.080;20.040;2022-12-29T01:40:10;7.13;;;4.20;;
54557;SDS011;40452;50.080;20.040;2022-12-29T01:42:36;8.45;;;4.25;;
54557;SDS011;40452;50.080;20.040;2022-12-29T01:45:08;7.75;;;4.63;;
54557;SDS011;40452;50.080;20.040;2022-12-29T01:47:38;7.97;;;4.38;;
54557;SDS011;40452;50.080;20.040;2022-12-29T01:50:51;8.13;;;4.35;;
54557;SDS011;40452;50.080;20.040;2022-12-29T01:53:00;10.13;;;4.47;;
54557;SDS011;40452;50.080;20.040;2022-12-29T01:55:34;7.45;;;4.60;;
54557;SDS011;40452;50.080;20.040;2022-12-29T01:58:05;7.25;;;4.10;;
54557;SDS011;40452;50.080;20.040;2022-12-29T02:00:32;7.50;;;4.13;;
54557;SDS011;40452;50.080;20.040;2022-12-29T02:02:57;8.60;;;4.72;;
54557;SDS011;40452;50.080;20.040;2022-12-29T02:07:54;6.45;;;4.25;;
54557;SDS011;40452;50.080;20.040;2022-12-29T02:10:20;8.30;;;4.50;;
54557;SDS011;40452;50.080;20.040;2022-12-29T02:12:47;7.55;;;4.30;;
54557;SDS011;40452;50.080;20.040;2022-12-29T02:15:13;7.38;;;3.95;;
54557;SDS011;40452;50.080;20.040;2022-12-29T02:17:42;7.13;;;4.20;;
54557;SDS011;40452;50.080;20.040;2022-12-29T02:20:24;6.85;;;4.35;;
54557;SDS011;40452;50.080;20.040;2022-12-29T02:28:33;9.73;;;4.50;;
54557;SDS011;40452;50.080;20.040;2022-12-29T02:31:17;8.82;;;4.28;;
54557;SDS011;40452;50.080;20.040;2022-12-29T02:36:37;8.93;;;4.25;;
54557;SDS011;40452;50.080;20.040;2022-12-29T02:47:30;7.80;;;4.15;;
54557;SDS011;40452;50.080;20.040;2022-12-29T02:50:18;8.38;;;4.30;;
54557;SDS011;40452;50.080;20.040;2022-12-29T02:52:51;6.38;;;3.90;;
54557;SDS011;40452;50.080;20.040;2022-12-29T02:55:22;5.80;;;3.83;;
54557;SDS011;40452;50.080;20.040;2022-12-29T02:57:47;7.05;;;3.90;;
54557;SDS011;40452;50.080;20.040;2022-12-29T03:00:16;7.35;;;3.72;;
54557;SDS011;40452;50.080;20.040;2022-12-29T03:03:05;7.57;;;3.83;;
54557;SDS011;40452;50.080;20.040;2022-12-29T03:10:48;7.07;;;3.75;;
54557;SDS011;40452;50.080;20.040;2022-12-29T03:16:45;6.85;;;3.53;;
54557;SDS011;40452;50.080;20.040;2022-12-29T03:21:59;6.35;;;4.00;;
54557;SDS011;40452;50.080;20.040;2022-12-29T03:24:50;6.53;;;3.67;;
54557;SDS011;40452;50.080;20.040;2022-12-29T03:27:22;6.40;;;3.72;;
54557;SDS011;40452;50.080;20.040;2022-12-29T03:30:04;5.20;;;3.60;;
54557;SDS011;40452;50.080;20.040;2022-12-29T03:32:51;6.00;;;3.58;;
54557;SDS011;40452;50.080;20.040;2022-12-29T03:35:21;5.22;;;3.60;;
54557;SDS011;40452;50.080;20.040;2022-12-29T03:38:06;5.47;;;3.20;;
54557;SDS011;40452;50.080;20.040;2022-12-29T03:40:55;5.68;;;3.67;;
54557;SDS011;40452;50.080;20.040;2022-12-29T03:43:24;6.00;;;3.80;;
54557;SDS011;40452;50.080;20.040;2022-12-29T03:45:50;8.32;;;3.80;;
54557;SDS011;40452;50.080;20.040;2022-12-29T03:48:15;7.60;;;3.72;;
54557;SDS011;40452;50.080;20.040;2022-12-29T03:50:41;5.13;;;3.30;;
54557;SDS011;40452;50.080;20.040;2022-12-29T03:53:06;6.40;;;3.28;;
54557;SDS011;40452;50.080;20.040;2022-12-29T03:55:32;5.13;;;3.42;;
54557;SDS011;40452;50.080;20.040;2022-12-29T03:57:58;5.40;;;3.22;;
54557;SDS011;40452;50.080;20.040;2022-12-29T04:00:23;7.25;;;3.85;;
54557;SDS011;40452;50.080;20.040;2022-12-29T04:02:49;7.95;;;4.40;;
54557;SDS011;40452;50.080;20.040;2022-12-29T04:05:15;6.80;;;4.57;;
54557;SDS011;40452;50.080;20.040;2022-12-29T04:07:40;8.00;;;4.70;;
54557;SDS011;40452;50.080;20.040;2022-12-29T04:10:06;8.30;;;5.30;;
54557;SDS011;40452;50.080;20.040;2022-12-29T04:12:32;10.60;;;6.55;;
54557;SDS011;40452;50.080;20.040;2022-12-29T04:14:57;10.85;;;6.72;;
54557;SDS011;40452;50.080;20.040;2022-12-29T04:17:23;11.88;;;7.25;;
54557;SDS011;40452;50.080;20.040;2022-12-29T04:19:48;13.95;;;8.48;;
54557;SDS011;40452;50.080;20.040;2022-12-29T04:22:14;14.70;;;9.32;;
54557;SDS011;40452;50.080;20.040;2022-12-29T04:24:39;16.23;;;10.07;;
54557;SDS011;40452;50.080;20.040;2022-12-29T04:27:06;17.90;;;10.55;;
54557;SDS011;40452;50.080;20.040;2022-12-29T04:29:32;17.92;;;11.70;;
54557;SDS011;40452;50.080;20.040;2022-12-29T04:31:57;18.73;;;12.10;;
54557;SDS011;40452;50.080;20.040;2022-12-29T04:34:23;22.23;;;13.10;;
54557;SDS011;40452;50.080;20.040;2022-12-29T04:36:48;23.75;;;14.52;;
54557;SDS011;40452;50.080;20.040;2022-12-29T04:39:14;22.92;;;14.45;;
54557;SDS011;40452;50.080;20.040;2022-12-29T04:41:39;24.38;;;15.32;;
54557;SDS011;40452;50.080;20.040;2022-12-29T04:44:05;27.15;;;15.73;;
54557;SDS011;40452;50.080;20.040;2022-12-29T04:46:31;26.63;;;16.90;;
54557;SDS011;40452;50.080;20.040;2022-12-29T04:48:56;25.52;;;16.13;;
54557;SDS011;40452;50.080;20.040;2022-12-29T04:51:22;28.08;;;17.15;;
54557;SDS011;40452;50.080;20.040;2022-12-29T04:53:47;29.45;;;18.75;;
54557;SDS011;40452;50.080;20.040;2022-12-29T04:56:13;30.00;;;17.85;;
54557;SDS011;40452;50.080;20.040;2022-12-29T04:58:39;31.77;;;18.90;;
54557;SDS011;40452;50.080;20.040;2022-12-29T05:01:04;33.28;;;18.50;;
54557;SDS011;40452;50.080;20.040;2022-12-29T05:03:30;31.50;;;19.80;;
54557;SDS011;40452;50.080;20.040;2022-12-29T05:05:56;31.05;;;19.73;;
54557;SDS011;40452;50.080;20.040;2022-12-29T05:08:22;33.38;;;20.15;;
54557;SDS011;40452;50.080;20.040;2022-12-29T05:10:51;35.35;;;21.95;;
54557;SDS011;40452;50.080;20.040;2022-12-29T05:13:17;32.05;;;20.17;;
54557;SDS011;40452;50.080;20.040;2022-12-29T05:16:16;35.35;;;20.73;;
54557;SDS011;40452;50.080;20.040;2022-12-29T05:18:38;33.63;;;20.85;;
54557;SDS011;40452;50.080;20.040;2022-12-29T05:21:03;36.78;;;21.70;;
54557;SDS011;40452;50.080;20.040;2022-12-29T05:23:29;48.33;;;28.48;;
54557;SDS011;40452;50.080;20.040;2022-12-29T05:25:55;42.20;;;24.90;;
54557;SDS011;40452;50.080;20.040;2022-12-29T05:28:20;37.90;;;23.95;;
54557;SDS011;40452;50.080;20.040;2022-12-29T05:30:49;42.33;;;24.42;;
54557;SDS011;40452;50.080;20.040;2022-12-29T05:33:16;45.75;;;24.58;;
54557;SDS011;40452;50.080;20.040;2022-12-29T05:35:42;38.47;;;24.25;;
54557;SDS011;40452;50.080;20.040;2022-12-29T05:38:08;38.17;;;23.27;;
54557;SDS011;40452;50.080;20.040;2022-12-29T05:40:33;36.28;;;23.13;;
54557;SDS011;40452;50.080;20.040;2022-12-29T05:42:59;41.65;;;23.90;;
54557;SDS011;40452;50.080;20.040;2022-12-29T05:45:24;38.35;;;23.23;;
54557;SDS011;40452;50.080;20.040;2022-12-29T05:47:50;40.28;;;23.23;;
54557;SDS011;40452;50.080;20.040;2022-12-29T05:50:15;40.53;;;23.27;;
54557;SDS011;40452;50.080;20.040;2022-12-29T05:52:41;38.05;;;23.10;;
54557;SDS011;40452;50.080;20.040;2022-12-29T05:55:06;35.78;;;21.80;;
54557;SDS011;40452;50.080;20.040;2022-12-29T05:57:32;38.40;;;23.58;;
54557;SDS011;40452;50.080;20.040;2022-12-29T05:59:58;35.38;;;22.50;;
54557;SDS011;40452;50.080;20.040;2022-12-29T06:02:23;36.13;;;22.10;;
54557;SDS011;40452;50.080;20.040;2022-12-29T06:04:49;33.90;;;21.63;;
54557;SDS011;40452;50.080;20.040;2022-12-29T06:07:15;33.60;;;21.02;;
54557;SDS011;40452;50.080;20.040;2022-12-29T06:09:40;35.40;;;20.70;;
54557;SDS011;40452;50.080;20.040;2022-12-29T06:12:06;33.83;;;21.00;;
54557;SDS011;40452;50.080;20.040;2022-12-29T06:14:31;36.65;;;21.20;;
54557;SDS011;40452;50.080;20.040;2022-12-29T06:16:57;32.08;;;20.02;;
54557;SDS011;40452;50.080;20.040;2022-12-29T06:19:22;33.47;;;20.92;;
54557;SDS011;40452;50.080;20.040;2022-12-29T06:21:48;33.05;;;20.85;;
54557;SDS011;40452;50.080;20.040;2022-12-29T06:24:14;34.25;;;21.15;;
54557;SDS011;40452;50.080;20.040;2022-12-29T06:26:39;35.95;;;20.48;;
54557;SDS011;40452;50.080;20.040;2022-12-29T06:29:05;32.38;;;19.33;;
54557;SDS011;40452;50.080;20.040;2022-12-29T06:31:33;34.67;;;20.45;;
54557;SDS011;40452;50.080;20.040;2022-12-29T06:33:58;31.50;;;19.35;;
54557;SDS011;40452;50.080;20.040;2022-12-29T06:36:24;35.25;;;19.95;;
54557;SDS011;40452;50.080;20.040;2022-12-29T06:38:50;31.23;;;19.65;;
54557;SDS011;40452;50.080;20.040;2022-12-29T06:41:17;31.25;;;18.60;;
54557;SDS011;40452;50.080;20.040;2022-12-29T06:43:43;32.45;;;19.52;;
54557;SDS011;40452;50.080;20.040;2022-12-29T06:46:09;31.08;;;19.25;;
54557;SDS011;40452;50.080;20.040;2022-12-29T06:48:34;29.25;;;17.85;;
54557;SDS011;40452;50.080;20.040;2022-12-29T06:51:00;30.52;;;18.50;;
54557;SDS011;40452;50.080;20.040;2022-12-29T06:53:25;30.33;;;19.10;;
54557;SDS011;40452;50.080;20.040;2022-12-29T06:55:51;29.63;;;17.98;;
54557;SDS011;40452;50.080;20.040;2022-12-29T06:58:17;27.20;;;18.15;;
54557;SDS011;40452;50.080;20.040;2022-12-29T07:00:42;29.42;;;17.27;;
54557;SDS011;40452;50.080;20.040;2022-12-29T07:03:08;28.13;;;16.67;;
54557;SDS011;40452;50.080;20.040;2022-12-29T07:05:34;27.98;;;17.35;;
54557;SDS011;40452;50.080;20.040;2022-12-29T07:07:59;27.25;;;16.52;;
54557;SDS011;40452;50.080;20.040;2022-12-29T07:10:25;27.45;;;16.83;;
54557;SDS011;40452;50.080;20.040;2022-12-29T07:12:50;25.55;;;16.80;;
54557;SDS011;40452;50.080;20.040;2022-12-29T07:15:16;32.15;;;17.63;;
54557;SDS011;40452;50.080;20.040;2022-12-29T07:17:42;27.98;;;17.00;;
54557;SDS011;40452;50.080;20.040;2022-12-29T07:20:08;27.73;;;16.17;;
54557;SDS011;40452;50.080;20.040;2022-12-29T07:22:34;24.92;;;15.55;;
54557;SDS011;40452;50.080;20.040;2022-12-29T07:24:59;26.27;;;15.98;;
54557;SDS011;40452;50.080;20.040;2022-12-29T07:27:25;30.35;;;15.98;;
54557;SDS011;40452;50.080;20.040;2022-12-29T07:29:51;29.33;;;15.23;;
54557;SDS011;40452;50.080;20.040;2022-12-29T07:32:16;26.10;;;14.68;;
54557;SDS011;40452;50.080;20.040;2022-12-29T07:34:42;25.80;;;14.43;;
54557;SDS011;40452;50.080;20.040;2022-12-29T07:37:10;24.45;;;14.23;;
54557;SDS011;40452;50.080;20.040;2022-12-29T07:39:35;22.65;;;13.35;;
54557;SDS011;40452;50.080;20.040;2022-12-29T07:42:01;22.17;;;13.90;;
54557;SDS011;40452;50.080;20.040;2022-12-29T07:44:26;22.88;;;13.27;;
54557;SDS011;40452;50.080;20.040;2022-12-29T07:46:52;23.73;;;12.65;;
54557;SDS011;40452;50.080;20.040;2022-12-29T07:49:17;24.27;;;13.13;;
54557;SDS011;40452;50.080;20.040;2022-12-29T07:51:43;21.60;;;13.02;;
54557;SDS011;40452;50.080;20.040;2022-12-29T07:54:09;22.95;;;12.75;;
54557;SDS011;40452;50.080;20.040;2022-12-29T07:56:35;22.67;;;12.20;;
54557;SDS011;40452;50.080;20.040;2022-12-29T07:59:00;21.65;;;11.98;;
54557;SDS011;40452;50.080;20.040;2022-12-29T08:01:26;23.50;;;12.48;;
54557;SDS011;40452;50.080;20.040;2022-12-29T08:03:51;22.10;;;12.45;;
54557;SDS011;40452;50.080;20.040;2022-12-29T08:06:17;21.80;;;12.02;;
54557;SDS011;40452;50.080;20.040;2022-12-29T08:08:43;25.13;;;13.07;;
54557;SDS011;40452;50.080;20.040;2022-12-29T08:11:08;22.80;;;11.68;;
54557;SDS011;40452;50.080;20.040;2022-12-29T08:13:34;20.27;;;11.93;;
54557;SDS011;40452;50.080;20.040;2022-12-29T08:16:00;20.67;;;12.02;;
54557;SDS011;40452;50.080;20.040;2022-12-29T08:18:25;21.27;;;11.73;;
54557;SDS011;40452;50.080;20.040;2022-12-29T08:20:51;24.65;;;12.15;;
54557;SDS011;40452;50.080;20.040;2022-12-29T08:23:16;20.30;;;11.27;;
54557;SDS011;40452;50.080;20.040;2022-12-29T08:25:42;21.13;;;11.45;;
54557;SDS011;40452;50.080;20.040;2022-12-29T08:28:07;18.98;;;10.60;;
54557;SDS011;40452;50.080;20.040;2022-12-29T08:30:33;19.60;;;10.55;;
54557;SDS011;40452;50.080;20.040;2022-12-29T08:32:58;18.88;;;11.02;;
54557;SDS011;40452;50.080;20.040;2022-12-29T08:35:24;18.27;;;10.95;;
54557;SDS011;40452;50.080;20.040;2022-12-29T08:37:49;19.60;;;10.27;;
54557;SDS011;40452;50.080;20.040;2022-12-29T08:40:15;19.60;;;10.73;;
54557;SDS011;40452;50.080;20.040;2022-12-29T08:42:41;18.52;;;10.85;;
54557;SDS011;40452;50.080;20.040;2022-12-29T08:45:06;22.77;;;10.45;;
54557;SDS011;40452;50.080;20.040;2022-12-29T12:21:08;15.02;;;8.30;;
54557;SDS011;40452;50.080;20.040;2022-12-29T12:23:46;12.63;;;7.95;;
54557;SDS011;40452;50.080;20.040;2022-12-29T12:26:40;12.80;;;7.70;;
54557;SDS011;40452;50.080;20.040;2022-12-29T12:34:36;15.48;;;8.05;;
54557;SDS011;40452;50.080;20.040;2022-12-29T12:45:41;15.05;;;7.07;;
54557;SDS011;40452;50.080;20.040;2022-12-29T12:48:26;12.85;;;7.40;;
54557;SDS011;40452;50.080;20.040;2022-12-29T12:53:44;15.80;;;7.38;;
54557;SDS011;40452;50.080;20.040;2022-12-29T13:02:50;11.90;;;6.75;;
54557;SDS011;40452;50.080;20.040;2022-12-29T13:08:00;14.88;;;6.82;;
54557;SDS011;40452;50.080;20.040;2022-12-29T13:17:13;11.48;;;6.90;;
54557;SDS011;40452;50.080;20.040;2022-12-29T13:22:46;12.35;;;6.80;;
54557;SDS011;40452;50.080;20.040;2022-12-29T13:36:42;12.57;;;7.40;;
54557;SDS011;40452;50.080;20.040;2022-12-29T13:39:17;12.05;;;7.80;;
54557;SDS011;40452;50.080;20.040;2022-12-29T13:41:51;12.82;;;7.50;;
54557;SDS011;40452;50.080;20.040;2022-12-29T13:44:32;13.15;;;7.93;;
54557;SDS011;40452;50.080;20.040;2022-12-29T13:47:00;12.52;;;8.10;;
54557;SDS011;40452;50.080;20.040;2022-12-29T13:49:30;13.48;;;8.25;;
54557;SDS011;40452;50.080;20.040;2022-12-29T13:51:59;14.60;;;8.38;;
54557;SDS011;40452;50.080;20.040;2022-12-29T13:57:41;13.30;;;8.15;;
54557;SDS011;40452;50.080;20.040;2022-12-29T14:00:11;15.80;;;9.00;;
54557;SDS011;40452;50.080;20.040;2022-12-29T14:07:42;13.13;;;8.85;;
54557;SDS011;40452;50.080;20.040;2022-12-29T14:10:25;13.18;;;9.10;;
54557;SDS011;40452;50.080;20.040;2022-12-29T14:15:40;12.68;;;8.93;;
54557;SDS011;40452;50.080;20.040;2022-12-29T14:20:50;13.57;;;8.88;;
54557;SDS011;40452;50.080;20.040;2022-12-29T14:26:12;15.38;;;9.52;;
54557;SDS011;40452;50.080;20.040;2022-12-29T14:28:49;14.60;;;9.32;;
54557;SDS011;40452;50.080;20.040;2022-12-29T14:33:41;15.57;;;8.93;;
54557;SDS011;40452;50.080;20.040;2022-12-29T14:36:26;15.10;;;10.05;;
54557;SDS011;40452;50.080;20.040;2022-12-29T14:38:59;15.13;;;9.70;;
54557;SDS011;40452;50.080;20.040;2022-12-29T14:41:40;15.60;;;9.63;;
54557;SDS011;40452;50.080;20.040;2022-12-29T14:44:18;13.63;;;9.18;;
54557;SDS011;40452;50.080;20.040;2022-12-29T14:46:46;16.05;;;9.25;;
54557;SDS011;40452;50.080;20.040;2022-12-29T14:49:21;17.50;;;9.82;;
54557;SDS011;40452;50.080;20.040;2022-12-29T14:51:52;17.92;;;9.43;;
54557;SDS011;40452;50.080;20.040;2022-12-29T14:57:07;15.43;;;9.55;;
54557;SDS011;40452;50.080;20.040;2022-12-29T14:59:40;14.00;;;9.40;;
54557;SDS011;40452;50.080;20.040;2022-12-29T15:02:19;15.55;;;9.30;;
54557;SDS011;40452;50.080;20.040;2022-12-29T15:04:47;16.05;;;9.57;;
54557;SDS011;40452;50.080;20.040;2022-12-29T15:07:13;15.90;;;9.40;;
54557;SDS011;40452;50.080;20.040;2022-12-29T15:09:47;13.77;;;9.65;;
54557;SDS011;40452;50.080;20.040;2022-12-29T15:12:22;14.90;;;9.30;;
54557;SDS011;40452;50.080;20.040;2022-12-29T15:14:58;13.65;;;9.63;;
54557;SDS011;40452;50.080;20.040;2022-12-29T15:19:51;13.73;;;9.52;;
54557;SDS011;40452;50.080;20.040;2022-12-29T15:22:17;13.20;;;8.88;;
54557;SDS011;40452;50.080;20.040;2022-12-29T15:24:43;15.43;;;9.68;;
54557;SDS011;40452;50.080;20.040;2022-12-29T15:27:15;16.15;;;10.02;;
54557;SDS011;40452;50.080;20.040;2022-12-29T15:29:44;14.57;;;9.90;;
54557;SDS011;40452;50.080;20.040;2022-12-29T15:32:44;18.55;;;9.57;;
54557;SDS011;40452;50.080;20.040;2022-12-29T15:38:00;14.95;;;9.70;;
54557;SDS011;40452;50.080;20.040;2022-12-29T15:40:37;13.93;;;9.55;;
54557;SDS011;40452;50.080;20.040;2022-12-29T15:43:16;16.42;;;9.50;;
54557;SDS011;40452;50.080;20.040;2022-12-29T15:46:08;15.52;;;10.18;;
54557;SDS011;40452;50.080;20.040;2022-12-29T15:48:36;15.15;;;10.13;;
54557;SDS011;40452;50.080;20.040;2022-12-29T15:51:03;13.80;;;9.63;;
54557;SDS011;40452;50.080;20.040;2022-12-29T15:53:43;15.45;;;10.05;;
54557;SDS011;40452;50.080;20.040;2022-12-29T15:56:12;16.95;;;9.90;;
54557;SDS011;40452;50.080;20.040;2022-12-29T15:58:42;14.98;;;9.80;;
54557;SDS011;40452;50.080;20.040;2022-12-29T16:01:17;15.40;;;9.75;;
54557;SDS011;40452;50.080;20.040;2022-12-29T16:03:44;15.13;;;9.93;;
54557;SDS011;40452;50.080;20.040;2022-12-29T16:06:57;14.30;;;9.95;;
54557;SDS011;40452;50.080;20.040;2022-12-29T16:09:02;15.00;;;9.93;;
54557;SDS011;40452;50.080;20.040;2022-12-29T16:11:31;15.93;;;10.07;;
54557;SDS011;40452;50.080;20.040;2022-12-29T16:14:02;14.45;;;9.82;;
54557;SDS011;40452;50.080;20.040;2022-12-29T16:16:38;16.52;;;10.05;;
54557;SDS011;40452;50.080;20.040;2022-12-29T16:19:24;15.52;;;9.57;;
54557;SDS011;40452;50.080;20.040;2022-12-29T16:21:54;14.02;;;9.95;;
54557;SDS011;40452;50.080;20.040;2022-12-29T16:24:23;13.25;;;9.32;;
54557;SDS011;40452;50.080;20.040;2022-12-29T16:26:57;13.95;;;9.85;;
54557;SDS011;40452;50.080;20.040;2022-12-29T16:29:34;18.23;;;11.82;;
54557;SDS011;40452;50.080;20.040;2022-12-29T16:32:00;16.48;;;10.35;;
54557;SDS011;40452;50.080;20.040;2022-12-29T16:34:29;13.32;;;9.93;;
54557;SDS011;40452;50.080;20.040;2022-12-29T16:39:54;17.85;;;10.48;;
54557;SDS011;40452;50.080;20.040;2022-12-29T16:45:01;16.55;;;10.70;;
54557;SDS011;40452;50.080;20.040;2022-12-29T16:47:42;17.95;;;10.85;;
54557;SDS011;40452;50.080;20.040;2022-12-29T16:50:11;16.98;;;10.73;;
54557;SDS011;40452;50.080;20.040;2022-12-29T16:52:41;16.70;;;10.70;;
54557;SDS011;40452;50.080;20.040;2022-12-29T16:55:14;18.52;;;11.30;;
54557;SDS011;40452;50.080;20.040;2022-12-29T16:57:41;18.63;;;10.40;;
54557;SDS011;40452;50.080;20.040;2022-12-29T17:00:17;16.08;;;10.73;;
54557;SDS011;40452;50.080;20.040;2022-12-29T17:02:44;17.85;;;11.02;;
54557;SDS011;40452;50.080;20.040;2022-12-29T17:05:14;14.65;;;9.88;;
54557;SDS011;40452;50.080;20.040;2022-12-29T17:10:07;18.05;;;10.95;;
54557;SDS011;40452;50.080;20.040;2022-12-29T17:12:33;19.25;;;10.95;;
54557;SDS011;40452;50.080;20.040;2022-12-29T17:15:01;18.10;;;10.63;;
54557;SDS011;40452;50.080;20.040;2022-12-29T17:20:22;16.92;;;10.73;;
54557;SDS011;40452;50.080;20.040;2022-12-29T17:22:47;15.27;;;10.35;;
54557;SDS011;40452;50.080;20.040;2022-12-29T17:25:15;16.35;;;10.18;;
54557;SDS011;40452;50.080;20.040;2022-12-29T17:27:53;28.90;;;15.82;;
54557;SDS011;40452;50.080;20.040;2022-12-29T17:30:45;20.40;;;13.63;;
54557;SDS011;40452;50.080;20.040;2022-12-29T17:33:12;21.55;;;12.32;;
54557;SDS011;40452;50.080;20.040;2022-12-29T17:35:39;20.20;;;12.32;;
54557;SDS011;40452;50.080;20.040;2022-12-29T17:38:18;19.67;;;12.73;;
54557;SDS011;40452;50.080;20.040;2022-12-29T17:40:51;18.20;;;12.32;;
54557;SDS011;40452;50.080;20.040;2022-12-29T17:43:17;20.60;;;12.88;;
54557;SDS011;40452;50.080;20.040;2022-12-29T17:45:44;22.52;;;12.15;;
54557;SDS011;40452;50.080;20.040;2022-12-29T17:48:14;23.13;;;12.02;;
54557;SDS011;40452;50.080;20.040;2022-12-29T17:50:40;20.70;;;11.45;;
54557;SDS011;40452;50.080;20.040;2022-12-29T17:53:10;17.58;;;11.30;;
54557;SDS011;40452;50.080;20.040;2022-12-29T17:55:54;19.35;;;12.05;;
54557;SDS011;40452;50.080;20.040;2022-12-29T17:58:21;23.23;;;12.38;;
54557;SDS011;40452;50.080;20.040;2022-12-29T18:00:54;20.67;;;12.52;;
54557;SDS011;40452;50.080;20.040;2022-12-29T18:05:55;22.83;;;11.88;;
54557;SDS011;40452;50.080;20.040;2022-12-29T19:19:45;25.55;;;15.88;;
54557;SDS011;40452;50.080;20.040;2022-12-29T19:22:10;26.38;;;15.75;;
54557;SDS011;40452;50.080;20.040;2022-12-29T19:24:36;24.48;;;15.77;;
54557;SDS011;40452;50.080;20.040;2022-12-29T19:27:01;25.20;;;15.15;;
54557;SDS011;40452;50.080;20.040;2022-12-29T19:29:27;22.63;;;13.75;;
54557;SDS011;40452;50.080;20.040;2022-12-29T19:31:54;26.90;;;15.27;;
54557;SDS011;40452;50.080;20.040;2022-12-29T19:34:20;23.23;;;14.48;;
54557;SDS011;40452;50.080;20.040;2022-12-29T19:36:45;22.42;;;14.43;;
54557;SDS011;40452;50.080;20.040;2022-12-29T19:39:11;21.33;;;13.50;;
54557;SDS011;40452;50.080;20.040;2022-12-29T19:41:37;22.15;;;14.30;;
54557;SDS011;40452;50.080;20.040;2022-12-29T19:44:03;22.83;;;14.23;;
54557;SDS011;40452;50.080;20.040;2022-12-29T19:46:28;22.17;;;13.73;;
54557;SDS011;40452;50.080;20.040;2022-12-29T19:48:54;19.50;;;13.70;;
54557;SDS011;40452;50.080;20.040;2022-12-29T19:51:22;22.02;;;12.93;;
54557;SDS011;40452;50.080;20.040;2022-12-29T19:53:48;23.02;;;13.60;;
54557;SDS011;40452;50.080;20.040;2022-12-29T19:56:14;23.88;;;13.82;;
54557;SDS011;40452;50.080;20.040;2022-12-29T19:58:41;21.25;;;13.30;;
54557;SDS011;40452;50.080;20.040;2022-12-29T20:01:14;22.80;;;13.20;;
54557;SDS011;40452;50.080;20.040;2022-12-29T20:03:41;19.77;;;12.82;;
54557;SDS011;40452;50.080;20.040;2022-12-29T20:06:08;21.90;;;13.45;;
54557;SDS011;40452;50.080;20.040;2022-12-29T20:08:34;19.85;;;13.13;;
54557;SDS011;40452;50.080;20.040;2022-12-29T20:11:04;20.15;;;12.32;;
54557;SDS011;40452;50.080;20.040;2022-12-29T20:13:32;22.27;;;12.25;;
54557;SDS011;40452;50.080;20.040;2022-12-29T20:16:03;20.63;;;12.45;;
54557;SDS011;40452;50.080;20.040;2022-12-29T20:18:31;20.55;;;12.20;;
54557;SDS011;40452;50.080;20.040;2022-12-29T20:21:00;19.02;;;12.23;;
54557;SDS011;40452;50.080;20.040;2022-12-29T20:23:30;20.63;;;12.35;;
54557;SDS011;40452;50.080;20.040;2022-12-29T20:25:57;19.05;;;12.38;;
54557;SDS011;40452;50.080;20.040;2022-12-29T20:28:24;17.27;;;12.07;;
54557;SDS011;40452;50.080;20.040;2022-12-29T20:31:35;21.08;;;11.80;;
54557;SDS011;40452;50.080;20.040;2022-12-29T20:33:42;22.85;;;12.93;;
54557;SDS011;40452;50.080;20.040;2022-12-29T20:36:10;17.08;;;11.98;;
54557;SDS011;40452;50.080;20.040;2022-12-29T20:38:39;19.77;;;12.52;;
54557;SDS011;40452;50.080;20.040;2022-12-29T20:41:05;19.10;;;12.98;;
54557;SDS011;40452;50.080;20.040;2022-12-29T20:43:31;22.17;;;12.35;;
54557;SDS011;40452;50.080;20.040;2022-12-29T20:45:56;21.00;;;12.38;;
54557;SDS011;40452;50.080;20.040;2022-12-29T20:48:22;21.90;;;12.98;;
54557;SDS011;40452;50.080;20.040;2022-12-29T20:50:47;24.92;;;12.15;;
54557;SDS011;40452;50.080;20.040;2022-12-29T20:53:13;22.15;;;12.98;;
54557;SDS011;40452;50.080;20.040;2022-12-29T20:55:39;20.08;;;12.63;;
54557;SDS011;40452;50.080;20.040;2022-12-29T20:58:04;19.33;;;12.30;;
54557;SDS011;40452;50.080;20.040;2022-12-29T21:00:30;22.73;;;13.30;;
54557;SDS011;40452;50.080;20.040;2022-12-29T21:02:57;19.17;;;12.43;;
54557;SDS011;40452;50.080;20.040;2022-12-29T21:05:24;21.88;;;13.25;;
54557;SDS011;40452;50.080;20.040;2022-12-29T21:07:50;22.02;;;12.48;;
54557;SDS011;40452;50.080;20.040;2022-12-29T21:10:16;19.02;;;12.85;;
54557;SDS011;40452;50.080;20.040;2022-12-29T21:12:42;23.58;;;12.70;;
54557;SDS011;40452;50.080;20.040;2022-12-29T21:15:07;33.92;;;13.50;;
54557;SDS011;40452;50.080;20.040;2022-12-29T21:17:34;26.38;;;15.20;;
54557;SDS011;40452;50.080;20.040;2022-12-29T21:19:59;26.63;;;14.55;;